createdAt,value
2022-10-06T00:01:06.321Z,2.10
2022-10-06T00:03:34.366Z,2.10
2022-10-06T00:06:04.696Z,1.80
2022-10-06T00:08:33.440Z,2.30
2022-10-06T00:11:01.275Z,2.00
2022-10-06T00:13:30.159Z,2.20
2022-10-06T00:15:58.254Z,2.23
2022-10-06T00:18:26.583Z,1.97
2022-10-06T00:20:56.043Z,2.43
2022-10-06T00:23:25.977Z,2.27
2022-10-06T00:25:53.815Z,2.03
2022-10-06T00:28:22.362Z,2.50
2022-10-06T00:30:53.219Z,2.50
2022-10-06T00:33:21.557Z,2.10
2022-10-06T00:35:56.927Z,2.30
2022-10-06T00:38:26.840Z,1.87
2022-10-06T00:40:55.120Z,2.23
2022-10-06T00:43:45.725Z,1.90
2022-10-06T00:46:18.846Z,2.07
2022-10-06T00:48:51.106Z,2.43
2022-10-06T00:51:20.896Z,2.03
2022-10-06T00:53:50.318Z,2.00
2022-10-06T00:56:18.524Z,2.17
2022-10-06T00:58:46.505Z,2.23
2022-10-06T01:01:15.013Z,2.23
2022-10-06T01:03:47.876Z,2.30
2022-10-06T01:06:15.709Z,2.10
2022-10-06T01:08:43.779Z,2.20
2022-10-06T01:11:14.194Z,2.27
2022-10-06T01:13:46.368Z,2.20
2022-10-06T01:16:20.792Z,2.20
2022-10-06T01:18:49.691Z,2.03
2022-10-06T01:21:27.785Z,2.20
2022-10-06T01:23:58.351Z,2.40
2022-10-06T01:26:28.318Z,2.10
2022-10-06T01:28:56.506Z,2.30
2022-10-06T01:31:26.234Z,2.23
2022-10-06T01:33:55.043Z,2.30
2022-10-06T01:36:23.900Z,2.80
2022-10-06T01:38:53.122Z,2.70
2022-10-06T01:41:22.543Z,2.60
2022-10-06T01:43:50.726Z,2.30
2022-10-06T01:46:18.649Z,2.60
2022-10-06T01:48:46.488Z,2.50
2022-10-06T01:51:17.348Z,2.30
2022-10-06T01:53:45.344Z,2.20
2022-10-06T01:56:13.739Z,2.57
2022-10-06T01:58:43.895Z,2.70
2022-10-06T02:01:12.476Z,2.37
2022-10-06T02:03:41.265Z,2.40
2022-10-06T02:06:10.601Z,2.50
2022-10-06T02:08:39.573Z,2.73
2022-10-06T02:11:10.000Z,2.60
2022-10-06T02:13:43.395Z,2.63
2022-10-06T02:16:13.779Z,2.30
2022-10-06T02:18:43.556Z,2.60
2022-10-06T02:21:15.179Z,2.67
2022-10-06T02:23:43.052Z,2.40
2022-10-06T02:26:11.193Z,2.50
2022-10-06T02:28:39.374Z,2.40
2022-10-06T02:31:12.068Z,2.60
2022-10-06T02:33:42.212Z,2.40
2022-10-06T02:36:13.160Z,2.70
2022-10-06T02:38:41.585Z,2.63
2022-10-06T02:41:10.435Z,2.60
2022-10-06T02:43:38.904Z,2.40
2022-10-06T02:46:09.233Z,2.50
2022-10-06T02:48:39.668Z,2.73
2022-10-06T02:51:11.464Z,2.40
2022-10-06T02:53:39.754Z,2.40
2022-10-06T02:56:10.518Z,2.50
2022-10-06T02:58:39.990Z,2.47
2022-10-06T03:01:12.895Z,2.60
2022-10-06T03:03:42.775Z,2.73
2022-10-06T03:06:22.600Z,2.60
2022-10-06T03:09:02.898Z,2.90
2022-10-06T03:11:33.859Z,2.67
2022-10-06T03:14:02.030Z,2.37
2022-10-06T03:16:33.434Z,2.53
2022-10-06T03:19:03.878Z,2.93
2022-10-06T03:21:34.821Z,2.50
2022-10-06T03:24:03.154Z,3.53
2022-10-06T03:26:33.543Z,2.63
2022-10-06T03:29:01.850Z,2.53
2022-10-06T03:31:30.633Z,2.43
2022-10-06T03:33:59.009Z,2.60
2022-10-06T03:36:33.312Z,2.73
2022-10-06T03:39:04.082Z,2.63
2022-10-06T03:41:36.208Z,2.50
2022-10-06T03:44:05.635Z,3.17
2022-10-06T03:46:37.058Z,2.60
2022-10-06T03:49:08.007Z,2.73
2022-10-06T03:51:38.700Z,2.60
2022-10-06T03:54:10.566Z,2.70
2022-10-06T03:56:41.466Z,2.53
2022-10-06T03:59:13.829Z,3.13
2022-10-06T04:01:46.309Z,2.53
2022-10-06T04:04:18.759Z,2.70
2022-10-06T04:06:51.797Z,2.70
2022-10-06T04:09:21.673Z,2.67
2022-10-06T04:11:51.615Z,2.63
2022-10-06T04:14:20.314Z,2.93
2022-10-06T04:16:49.677Z,3.20
2022-10-06T04:19:22.688Z,2.80
2022-10-06T04:21:55.818Z,2.83
2022-10-06T04:24:25.628Z,2.90
2022-10-06T04:27:13.831Z,2.87
2022-10-06T04:29:42.353Z,3.23
2022-10-06T04:32:10.821Z,3.17
2022-10-06T04:34:38.850Z,2.87
2022-10-06T04:37:08.117Z,3.17
2022-10-06T04:39:37.682Z,2.87
2022-10-06T04:42:06.721Z,2.67
2022-10-06T04:44:34.594Z,3.03
2022-10-06T04:47:04.416Z,2.70
2022-10-06T04:49:32.700Z,2.77
2022-10-06T04:52:00.648Z,3.20
2022-10-06T04:54:34.134Z,3.20
2022-10-06T04:57:04.421Z,3.60
2022-10-06T04:59:49.943Z,3.33
2022-10-06T05:02:19.079Z,2.90
2022-10-06T05:04:47.902Z,3.00
2022-10-06T05:07:17.149Z,3.27
2022-10-06T05:09:47.400Z,3.00
2022-10-06T05:12:15.265Z,3.27
2022-10-06T05:14:44.561Z,3.03
2022-10-06T05:17:12.411Z,2.73
2022-10-06T05:19:40.555Z,2.40
2022-10-06T05:22:08.918Z,2.47
2022-10-06T05:24:37.429Z,3.10
2022-10-06T05:27:06.613Z,2.67
2022-10-06T05:29:35.610Z,2.93
2022-10-06T05:32:05.804Z,3.10
2022-10-06T05:34:35.200Z,3.07
2022-10-06T05:37:03.233Z,3.27
2022-10-06T05:39:31.316Z,3.20
2022-10-06T05:41:59.712Z,3.20
2022-10-06T05:44:29.690Z,3.00
2022-10-06T05:47:01.145Z,2.80
2022-10-06T05:49:29.953Z,2.87
2022-10-06T05:52:02.055Z,3.00
2022-10-06T05:54:32.879Z,2.80
2022-10-06T05:57:01.385Z,2.80
2022-10-06T05:59:32.503Z,3.63
2022-10-06T06:02:01.651Z,3.67
2022-10-06T06:04:36.443Z,3.23
2022-10-06T06:07:04.351Z,3.20
2022-10-06T06:09:32.239Z,3.67
2022-10-06T06:12:02.076Z,4.33
2022-10-06T06:15:15.172Z,3.00
2022-10-06T06:17:48.941Z,3.03
2022-10-06T06:20:16.990Z,3.77
2022-10-06T06:22:44.853Z,4.00
2022-10-06T06:25:13.494Z,3.47
2022-10-06T06:27:43.592Z,3.60
2022-10-06T06:30:15.604Z,3.50
2022-10-06T06:32:44.033Z,3.93
2022-10-06T06:35:12.023Z,4.20
2022-10-06T06:37:39.929Z,3.90
2022-10-06T06:40:08.800Z,3.80
2022-10-06T06:42:39.332Z,3.70
2022-10-06T06:45:34.523Z,3.80
2022-10-06T06:48:16.403Z,3.37
2022-10-06T06:50:46.038Z,3.43
2022-10-06T06:53:16.344Z,3.10
2022-10-06T06:55:50.908Z,4.20
2022-10-06T06:58:20.782Z,4.00
2022-10-06T07:00:50.396Z,4.20
2022-10-06T07:03:33.010Z,4.63
2022-10-06T07:06:10.575Z,4.27
2022-10-06T07:08:42.627Z,4.30
2022-10-06T07:11:16.265Z,4.00
2022-10-06T07:13:47.121Z,3.50
2022-10-06T07:16:35.975Z,3.00
2022-10-06T07:19:25.060Z,3.43
2022-10-06T07:22:12.985Z,2.80
2022-10-06T07:24:58.443Z,2.70
2022-10-06T07:27:26.468Z,2.70
2022-10-06T07:29:56.095Z,2.83
2022-10-06T07:32:27.924Z,2.50
2022-10-06T07:34:56.811Z,2.53
2022-10-06T07:37:25.268Z,2.00
2022-10-06T07:39:53.699Z,2.00
2022-10-06T07:42:21.731Z,2.20
2022-10-06T07:45:04.108Z,2.90
2022-10-06T07:47:33.388Z,2.53
2022-10-06T07:50:01.606Z,2.13
2022-10-06T07:52:30.027Z,2.20
2022-10-06T07:54:59.257Z,2.37
2022-10-06T07:57:41.025Z,2.67
2022-10-06T08:00:10.192Z,1.97
2022-10-06T08:02:42.522Z,2.17
2022-10-06T08:05:11.055Z,1.93
2022-10-06T08:07:38.863Z,1.83
2022-10-06T08:10:07.454Z,1.90
2022-10-06T08:12:37.469Z,1.80
2022-10-06T08:15:07.691Z,1.97
2022-10-06T08:17:37.039Z,1.60
2022-10-06T08:20:08.511Z,2.27
2022-10-06T08:22:38.608Z,2.00
2022-10-06T08:25:07.600Z,2.53
2022-10-06T08:27:36.999Z,2.20
2022-10-06T08:30:06.227Z,1.90
2022-10-06T08:32:35.258Z,1.73
2022-10-06T08:35:03.413Z,2.00
2022-10-06T08:37:32.704Z,1.77
2022-10-06T08:40:00.548Z,1.70
2022-10-06T08:42:35.298Z,2.00
2022-10-06T08:45:05.966Z,2.00
2022-10-06T08:47:37.040Z,2.20
2022-10-06T08:50:12.122Z,2.00
2022-10-06T08:52:52.065Z,1.63
2022-10-06T08:55:29.851Z,1.77
2022-10-06T09:00:42.033Z,1.60
2022-10-06T09:03:18.078Z,1.30
2022-10-06T09:05:46.675Z,1.83
2022-10-06T09:08:31.086Z,1.40
2022-10-06T09:11:10.169Z,1.60
2022-10-06T09:13:42.694Z,1.70
2022-10-06T09:16:14.796Z,1.43
2022-10-06T09:19:07.202Z,1.40
2022-10-06T09:21:39.601Z,1.60
2022-10-06T09:24:15.079Z,1.60
2022-10-06T09:26:45.346Z,1.70
2022-10-06T09:29:13.944Z,1.80
2022-10-06T09:31:43.897Z,1.63
2022-10-06T09:34:22.573Z,1.30
2022-10-06T09:37:02.721Z,1.80
2022-10-06T09:39:36.555Z,1.50
2022-10-06T09:42:07.886Z,1.50
2022-10-06T09:44:47.998Z,1.83
2022-10-06T09:47:35.564Z,1.50
2022-10-06T09:50:14.145Z,1.50
2022-10-06T09:52:43.072Z,1.47
2022-10-06T09:55:15.074Z,1.53
2022-10-06T09:57:50.702Z,1.87
2022-10-06T10:00:29.364Z,2.03
2022-10-06T10:03:03.726Z,1.60
2022-10-06T10:05:38.889Z,1.63
2022-10-06T10:08:10.040Z,1.50
2022-10-06T10:10:39.617Z,1.40
2022-10-06T10:13:20.286Z,1.23
2022-10-06T10:15:58.170Z,1.80
2022-10-06T10:18:30.140Z,1.60
2022-10-06T10:21:00.117Z,1.60
2022-10-06T10:23:32.249Z,1.60
2022-10-06T10:26:17.480Z,1.63
2022-10-06T10:29:18.657Z,1.60
2022-10-06T10:32:03.673Z,1.57
2022-10-06T10:34:49.577Z,1.63
2022-10-06T10:37:23.593Z,1.20
2022-10-06T10:39:56.019Z,1.50
2022-10-06T10:42:30.866Z,1.50
2022-10-06T10:45:02.167Z,1.37
2022-10-06T10:47:34.174Z,1.47
2022-10-06T10:50:08.328Z,1.50
2022-10-06T10:52:42.310Z,1.53
2022-10-06T10:55:23.141Z,1.50
2022-10-06T10:57:55.086Z,1.43
2022-10-06T11:00:28.044Z,1.50
2022-10-06T11:02:59.128Z,1.60
2022-10-06T11:05:53.624Z,1.80
2022-10-06T11:08:26.025Z,1.63
2022-10-06T11:10:58.494Z,1.70
2022-10-06T11:13:33.618Z,1.27
2022-10-06T11:16:26.281Z,1.60
2022-10-06T11:19:15.757Z,1.27
2022-10-06T11:21:51.017Z,1.20
2022-10-06T11:24:31.966Z,1.30
2022-10-06T11:27:18.091Z,1.20
2022-10-06T11:30:01.189Z,1.43
2022-10-06T11:32:37.702Z,1.23
2022-10-06T11:35:16.895Z,1.47
2022-10-06T11:37:49.878Z,1.40
2022-10-06T11:40:36.000Z,1.67
2022-10-06T11:43:09.944Z,1.40
2022-10-06T11:45:46.797Z,1.70
2022-10-06T11:48:26.564Z,1.67
2022-10-06T11:50:56.196Z,1.50
2022-10-06T11:53:43.930Z,1.70
2022-10-06T11:56:44.119Z,1.77
2022-10-06T11:59:27.111Z,1.60
2022-10-06T12:01:58.415Z,1.60
2022-10-06T12:04:27.286Z,1.57
2022-10-06T12:07:03.014Z,1.33
2022-10-06T12:09:53.049Z,1.50
2022-10-06T12:13:06.155Z,1.80
2022-10-06T12:19:02.030Z,1.67
2022-10-06T12:21:43.129Z,1.30
2022-10-06T12:24:36.899Z,1.67
2022-10-06T12:27:36.268Z,1.47
2022-10-06T12:30:16.013Z,1.40
2022-10-06T12:32:52.616Z,1.40
2022-10-06T12:35:33.318Z,1.73
2022-10-06T12:38:04.672Z,1.37
2022-10-06T12:40:47.483Z,1.70
2022-10-06T12:43:28.895Z,1.50
2022-10-06T12:46:00.309Z,1.40
2022-10-06T12:48:36.499Z,1.60
2022-10-06T12:51:21.585Z,1.30
2022-10-06T12:53:56.770Z,1.87
2022-10-06T12:56:29.481Z,1.73
2022-10-06T12:58:57.979Z,1.80
2022-10-06T13:01:27.791Z,1.77
2022-10-06T13:03:56.187Z,1.77
2022-10-06T13:06:26.676Z,2.30
2022-10-06T13:09:08.129Z,1.60
2022-10-06T13:11:36.605Z,1.90
2022-10-06T13:14:15.137Z,2.07
2022-10-06T13:16:45.957Z,1.77
2022-10-06T13:19:20.106Z,1.63
2022-10-06T13:21:49.345Z,1.57
2022-10-06T13:24:22.995Z,1.47
2022-10-06T13:26:50.965Z,1.63
2022-10-06T13:29:25.598Z,1.67
2022-10-06T13:31:55.557Z,3.80
2022-10-06T13:34:30.086Z,1.50
2022-10-06T13:37:00.702Z,1.70
2022-10-06T13:39:31.611Z,1.70
2022-10-06T13:42:03.430Z,1.60
2022-10-06T13:44:36.244Z,2.20
2022-10-06T13:47:06.263Z,1.60
2022-10-06T13:49:37.145Z,2.00
2022-10-06T13:52:16.232Z,1.70
2022-10-06T13:54:47.887Z,1.60
2022-10-06T13:57:34.070Z,1.67
2022-10-06T14:00:09.649Z,1.60
2022-10-06T14:02:38.321Z,1.63
2022-10-06T14:05:29.243Z,1.73
2022-10-06T14:08:01.093Z,2.03
2022-10-06T14:10:33.473Z,2.43
2022-10-06T14:13:02.255Z,1.60
2022-10-06T14:15:36.151Z,1.83
2022-10-06T14:18:06.058Z,1.73
2022-10-06T14:20:53.244Z,1.42
2022-10-06T14:23:43.104Z,1.50
2022-10-06T14:26:12.900Z,1.70
2022-10-06T14:28:41.309Z,1.67
2022-10-06T14:31:14.518Z,1.67
2022-10-06T14:33:43.060Z,1.60
2022-10-06T14:36:19.474Z,1.87
2022-10-06T14:38:50.117Z,1.98
2022-10-06T14:41:20.240Z,3.03
2022-10-06T14:43:48.731Z,1.90
2022-10-06T14:46:16.594Z,3.38
2022-10-06T14:48:44.863Z,1.70
2022-10-06T14:51:12.709Z,1.50
2022-10-06T14:53:40.635Z,2.20
2022-10-06T14:56:14.267Z,1.80
2022-10-06T14:58:44.746Z,3.00
2022-10-06T15:01:16.582Z,11.77
2022-10-06T15:03:49.063Z,5.50
2022-10-06T15:06:34.886Z,3.60
2022-10-06T15:09:02.795Z,2.90
2022-10-06T15:11:31.986Z,2.33
2022-10-06T15:14:00.318Z,1.90
2022-10-06T15:16:29.874Z,2.13
2022-10-06T15:18:59.809Z,1.80
2022-10-06T15:21:29.907Z,1.63
2022-10-06T15:23:59.133Z,1.77
2022-10-06T15:26:45.410Z,1.90
2022-10-06T15:29:14.661Z,1.53
2022-10-06T15:31:43.843Z,1.80
2022-10-06T15:34:15.050Z,1.80
2022-10-06T15:36:43.816Z,1.80
2022-10-06T15:39:13.497Z,1.77
2022-10-06T15:41:43.417Z,1.80
2022-10-06T15:44:12.639Z,1.50
2022-10-06T15:46:43.594Z,1.70
2022-10-06T15:49:12.989Z,1.40
2022-10-06T15:51:45.742Z,2.20
2022-10-06T15:54:14.448Z,1.57
2022-10-06T15:56:43.042Z,1.87
2022-10-06T15:59:11.504Z,1.53
2022-10-06T16:01:43.394Z,2.53
2022-10-06T16:04:29.296Z,2.27
2022-10-06T16:06:57.533Z,1.57
2022-10-06T16:09:27.242Z,1.80
2022-10-06T16:11:56.018Z,2.00
2022-10-06T16:14:24.796Z,2.00
2022-10-06T16:16:58.857Z,1.90
2022-10-06T16:19:28.838Z,1.97
2022-10-06T16:21:59.080Z,1.70
2022-10-06T16:24:27.635Z,1.87
2022-10-06T16:26:57.387Z,2.10
2022-10-06T16:29:25.521Z,1.60
2022-10-06T16:31:54.922Z,2.03
2022-10-06T16:34:23.099Z,1.57
2022-10-06T16:36:51.032Z,1.50
2022-10-06T16:39:20.878Z,1.60
2022-10-06T16:41:49.147Z,1.73
2022-10-06T16:44:17.490Z,1.67
2022-10-06T16:46:45.752Z,1.70
2022-10-06T16:49:15.058Z,1.80
2022-10-06T16:51:45.623Z,1.60
2022-10-06T16:54:15.211Z,1.57
2022-10-06T16:56:44.826Z,1.73
2022-10-06T16:59:14.937Z,1.30
2022-10-06T17:01:43.055Z,2.07
2022-10-06T17:04:12.729Z,1.60
2022-10-06T17:06:43.909Z,1.57
2022-10-06T17:09:14.111Z,1.83
2022-10-06T17:11:43.110Z,1.60
2022-10-06T17:14:11.323Z,1.60
2022-10-06T17:16:41.886Z,1.77
2022-10-06T17:19:12.386Z,1.73
2022-10-06T17:21:47.350Z,2.00
2022-10-06T17:24:18.009Z,1.77
2022-10-06T17:26:47.962Z,2.00
2022-10-06T17:29:18.584Z,2.43
2022-10-06T17:31:47.458Z,1.53
2022-10-06T17:34:20.881Z,1.97
2022-10-06T17:36:52.056Z,1.60
2022-10-06T17:39:21.623Z,1.90
2022-10-06T17:41:51.377Z,1.53
2022-10-06T17:44:23.027Z,1.80
2022-10-06T17:46:53.031Z,1.60
2022-10-06T17:49:22.516Z,1.40
2022-10-06T17:51:52.821Z,2.00
2022-10-06T17:54:22.778Z,1.70
2022-10-06T17:56:52.222Z,1.50
2022-10-06T17:59:22.361Z,2.27
2022-10-06T18:01:51.668Z,1.60
2022-10-06T18:04:20.337Z,2.03
2022-10-06T18:06:48.946Z,1.67
2022-10-06T18:09:18.541Z,2.10
2022-10-06T18:11:48.281Z,2.00
2022-10-06T18:14:18.773Z,1.80
2022-10-06T18:16:53.424Z,2.10
2022-10-06T18:19:26.242Z,1.90
2022-10-06T18:21:56.309Z,2.30
2022-10-06T18:24:27.439Z,2.43
2022-10-06T18:26:57.159Z,2.20
2022-10-06T18:29:28.067Z,2.40
2022-10-06T18:32:09.078Z,2.60
2022-10-06T18:37:31.462Z,2.63
2022-10-06T18:40:02.304Z,2.77
2022-10-06T18:42:30.119Z,2.20
2022-10-06T18:45:15.728Z,2.20
2022-10-06T18:48:01.256Z,2.37
2022-10-06T18:50:29.115Z,2.40
2022-10-06T18:52:57.221Z,2.37
2022-10-06T18:55:27.763Z,2.10
2022-10-06T18:57:55.699Z,2.30
2022-10-06T19:00:25.796Z,2.70
2022-10-06T19:02:55.391Z,2.10
2022-10-06T19:05:23.513Z,2.23
2022-10-06T19:07:53.459Z,2.57
2022-10-06T19:10:21.383Z,2.47
2022-10-06T19:12:50.674Z,2.10
2022-10-06T19:15:20.956Z,2.87
2022-10-06T19:17:49.484Z,2.27
2022-10-06T19:20:18.216Z,4.00
2022-10-06T19:22:47.467Z,3.63
2022-10-06T19:25:18.498Z,2.37
2022-10-06T19:27:46.426Z,2.90
2022-10-06T19:30:15.780Z,2.37
2022-10-06T19:32:43.597Z,2.30
2022-10-06T19:35:11.955Z,2.20
2022-10-06T19:37:40.171Z,2.87
2022-10-06T19:40:11.049Z,2.63
2022-10-06T19:42:47.203Z,2.70
2022-10-06T19:45:17.873Z,2.37
2022-10-06T19:47:47.097Z,1.97
2022-10-06T19:50:16.753Z,2.23
2022-10-06T19:52:45.092Z,2.27
2022-10-06T19:55:13.047Z,2.50
2022-10-06T19:57:41.187Z,2.30
2022-10-06T20:00:10.584Z,2.40
2022-10-06T20:02:43.819Z,2.40
2022-10-06T20:05:12.648Z,2.30
2022-10-06T20:07:40.815Z,2.20
2022-10-06T20:10:09.095Z,2.30
2022-10-06T20:12:38.272Z,2.40
2022-10-06T20:15:07.522Z,2.30
2022-10-06T20:17:35.688Z,3.00
2022-10-06T20:20:05.248Z,2.33
2022-10-06T20:22:33.080Z,2.50
2022-10-06T20:25:02.271Z,2.80
2022-10-06T20:27:30.150Z,2.20
2022-10-06T20:29:58.273Z,2.43
2022-10-06T20:32:26.262Z,2.60
2022-10-06T20:34:54.190Z,3.00
2022-10-06T20:37:23.375Z,2.40
2022-10-06T20:40:08.703Z,2.33
2022-10-06T20:42:36.552Z,2.50
2022-10-06T20:45:04.810Z,2.70
2022-10-06T20:47:32.793Z,2.53
2022-10-06T20:50:00.836Z,2.50
2022-10-06T20:52:30.201Z,2.47
2022-10-06T20:54:58.018Z,2.57
2022-10-06T20:57:29.041Z,2.43
2022-10-06T20:59:59.669Z,2.17
2022-10-06T21:02:27.483Z,2.20
2022-10-06T21:04:57.296Z,2.30
2022-10-06T21:07:25.116Z,2.70
2022-10-06T21:09:54.301Z,2.80
2022-10-06T21:12:22.137Z,2.43
2022-10-06T21:14:49.962Z,2.43
2022-10-06T21:17:18.754Z,2.20
2022-10-06T21:19:46.598Z,2.37
2022-10-06T21:22:14.407Z,2.43
2022-10-06T21:24:42.305Z,3.03
2022-10-06T21:27:11.492Z,2.73
2022-10-06T21:29:39.336Z,2.50
2022-10-06T21:32:09.881Z,2.47
2022-10-06T21:34:40.072Z,2.40
2022-10-06T21:37:07.980Z,2.50
2022-10-06T21:39:35.745Z,2.10
2022-10-06T21:42:03.627Z,2.80
2022-10-06T21:44:32.813Z,2.50
2022-10-06T21:47:02.430Z,2.40
2022-10-06T21:49:30.433Z,2.67
2022-10-06T21:52:03.387Z,2.60
2022-10-06T21:54:31.358Z,2.77
2022-10-06T21:56:59.471Z,2.40
2022-10-06T21:59:27.299Z,2.50
2022-10-06T22:01:56.690Z,2.27
2022-10-06T22:04:24.703Z,2.43
2022-10-06T22:06:52.530Z,2.50
2022-10-06T22:09:21.383Z,2.57
2022-10-06T22:11:49.803Z,2.40
2022-10-06T22:14:19.556Z,2.43
2022-10-06T22:16:48.122Z,2.63
2022-10-06T22:19:17.762Z,2.77
2022-10-06T22:21:47.546Z,2.30
2022-10-06T22:24:17.788Z,2.53
2022-10-06T22:26:46.221Z,2.90
2022-10-06T22:29:16.370Z,2.63
2022-10-06T22:31:46.230Z,2.10
2022-10-06T22:34:17.909Z,2.77
2022-10-06T22:36:45.921Z,2.17
2022-10-06T22:39:13.872Z,2.57
2022-10-06T22:41:42.130Z,2.87
2022-10-06T22:44:10.020Z,2.60
2022-10-06T22:46:38.720Z,2.67
2022-10-06T22:49:06.942Z,2.50
2022-10-06T22:51:36.547Z,1.90
2022-10-06T22:54:04.582Z,2.50
2022-10-06T22:56:33.923Z,2.23
2022-10-06T22:59:02.202Z,2.40
2022-10-06T23:01:30.763Z,2.37
2022-10-06T23:03:59.178Z,2.30
2022-10-06T23:06:29.527Z,2.10
2022-10-06T23:08:59.022Z,2.50
2022-10-06T23:11:27.065Z,2.27
2022-10-06T23:13:54.957Z,2.70
2022-10-06T23:16:22.828Z,2.50
2022-10-06T23:18:50.874Z,2.40
2022-10-06T23:21:22.343Z,2.37
2022-10-06T23:23:52.112Z,2.40
2022-10-06T23:26:23.092Z,2.40
2022-10-06T23:28:55.554Z,2.70
2022-10-06T23:31:23.582Z,2.30
2022-10-06T23:33:51.440Z,2.20
2022-10-06T23:36:19.517Z,2.30
2022-10-06T23:38:48.150Z,2.50
2022-10-06T23:41:16.617Z,2.83
2022-10-06T23:43:46.173Z,2.40
2022-10-06T23:46:14.674Z,2.40
2022-10-06T23:48:42.977Z,2.50
2022-10-06T23:51:12.974Z,2.07
2022-10-06T23:53:41.185Z,2.10
2022-10-06T23:56:09.591Z,2.60
2022-10-06T23:58:37.563Z,2.10
